Peleus — V2FV2 — position and weather

sailwx.info

Track history (hours):
 
Tides and Currents Weather Stations Pressure Air Temp Water Temp Dewpoint Dewpoint Depression Visibility Wind Speed Wind Dir Waves Ship Positions

Peleus

Last reported at 2015-May-27 17:18 UTC. Time now 2015-May-28 12:13 UTC.
Position N 32°48' E 030°14'.

Length 88 m; draft 3.5 m.

Type: Cargo ship. MMSI: 305810000.

Date/timePositionNaut miles runAvg speedWind from/ knotsBaromVisibWave heightAir tempDewpointWater temp
2015-May-27 17:18N 32°48' E 030°14'66 9.5
2015-May-27 10:22N 32°06' E 031°13'12 9.6
2015-May-27 09:05N 31°58' E 031°25'25 9.9
2015-May-27 06:33N 31°41' E 031°46'9 9.3
2015-May-27 05:33N 31°31' E 031°46'4 0.5
2015-May-26 21:22N 31°27' E 031°46'0 0.0
2015-May-26 20:04N 31°27' E 031°46'0 0.0
2015-May-26 19:31N 31°27' E 031°46'0 0.0
2015-May-26 18:16N 31°27' E 031°46'0 0.0
2015-May-26 17:28N 31°27' E 031°46'0 0.0
2015-May-26 16:31N 31°27' E 031°46'0 0.0
2015-May-26 15:13N 31°27' E 031°46'0 0.0
2015-May-26 13:28N 31°27' E 031°46'0 0.0
2015-May-26 12:22N 31°27' E 031°46'0 0.0
2015-May-26 11:28N 31°27' E 031°46'0 0.0
2015-May-26 10:31N 31°27' E 031°46'0 0.0
2015-May-26 08:31N 31°27' E 031°46'0 0.0
2015-May-26 06:16N 31°27' E 031°46'0 0.0
2015-May-26 03:31N 31°27' E 031°46'0 0.0
2015-May-26 02:22N 31°27' E 031°46'0 0.0
2015-May-26 01:28N 31°27' E 031°46'0 0.0
2015-May-25 17:10N 31°27' E 031°46'0 0.0
2015-May-25 16:19N 31°27' E 031°46'0 0.0
2015-May-25 15:25N 31°27' E 031°46'3 0.1
2015-May-23 20:28N 31°30' E 031°46'7 7.0
2015-May-23 19:28N 31°37' E 031°45'0 0.2
2015-May-23 18:29N 31°37' E 031°45'0 0.0
2015-May-23 17:29N 31°37' E 031°45'0 0.0
2015-May-23 16:29N 31°37' E 031°45'0 0.0
2015-May-23 13:32N 31°37' E 031°45'0 0.0
2015-May-23 12:32N 31°37' E 031°45'0 0.0
2015-May-23 11:32N 31°37' E 031°45'0 0.0
2015-May-23 10:32N 31°37' E 031°45'0 0.0
2015-May-23 09:32N 31°37' E 031°45'0 0.0
2015-May-23 08:32N 31°37' E 031°45'0 0.0
2015-May-23 04:29N 31°37' E 031°45'0 0.0
2015-May-23 03:32N 31°37' E 031°45'0 0.0
2015-May-23 02:23N 31°37' E 031°45'0 0.0
2015-May-23 01:29N 31°37' E 031°45'0 0.0
2015-May-22 21:32N 31°37' E 031°45'0 0.0
2015-May-22 20:14N 31°37' E 031°45'0 0.0
2015-May-20 21:23N 31°37' E 031°45'0 0.0
2015-May-20 20:32N 31°37' E 031°45'0 0.0
2015-May-20 17:20N 31°37' E 031°45'0 0.0
2015-May-20 16:32N 31°37' E 031°45'0 0.0
2015-May-20 15:32N 31°37' E 031°45'0 0.0
2015-May-20 14:32N 31°37' E 031°45'0 0.0
2015-May-20 13:17N 31°37' E 031°45'0 0.0
2015-May-20 12:29N 31°37' E 031°45'0 0.0
2015-May-20 11:32N 31°37' E 031°45'0 0.0
2015-May-20 10:32N 31°37' E 031°45'0 0.0
2015-May-20 09:32N 31°37' E 031°45'0 0.0
2015-May-20 08:32N 31°37' E 031°45'0 0.0
2015-May-20 07:29N 31°37' E 031°45'0 0.0
2015-May-20 06:29N 31°37' E 031°45'0 0.0
2015-May-20 05:23N 31°37' E 031°45'0 0.1
2015-May-20 04:32N 31°37' E 031°45'7 6.9
2015-May-20 03:26N 31°44' E 031°42'138 9.2
2015-May-19 12:25N 32°23' E 029°06'  
Track history (hours):
 
Tides and Currents Weather Stations Pressure Air Temp Water Temp Dewpoint Dewpoint Depression Visibility Wind Speed Wind Dir Waves Ship Positions

Peleus

Last reported at 2015-May-27 17:18 UTC. Time now 2015-May-28 12:13 UTC.
Position N 32°48' E 030°14'.

Length 88 m; draft 3.5 m.

Type: Cargo ship. MMSI: 305810000.

Date/timePositionNaut miles runAvg speedWind from/ knotsBaromVisibWave heightAir tempDewpointWater temp
2015-May-27 17:18N 32°48' E 030°14'66 9.5
2015-May-27 10:22N 32°06' E 031°13'12 9.6
2015-May-27 09:05N 31°58' E 031°25'25 9.9
2015-May-27 06:33N 31°41' E 031°46'9 9.3
2015-May-27 05:33N 31°31' E 031°46'4 0.5
2015-May-26 21:22N 31°27' E 031°46'0 0.0
2015-May-26 20:04N 31°27' E 031°46'0 0.0
2015-May-26 19:31N 31°27' E 031°46'0 0.0
2015-May-26 18:16N 31°27' E 031°46'0 0.0
2015-May-26 17:28N 31°27' E 031°46'0 0.0
2015-May-26 16:31N 31°27' E 031°46'0 0.0
2015-May-26 15:13N 31°27' E 031°46'0 0.0
2015-May-26 13:28N 31°27' E 031°46'0 0.0
2015-May-26 12:22N 31°27' E 031°46'0 0.0
2015-May-26 11:28N 31°27' E 031°46'0 0.0
2015-May-26 10:31N 31°27' E 031°46'0 0.0
2015-May-26 08:31N 31°27' E 031°46'0 0.0
2015-May-26 06:16N 31°27' E 031°46'0 0.0
2015-May-26 03:31N 31°27' E 031°46'0 0.0
2015-May-26 02:22N 31°27' E 031°46'0 0.0
2015-May-26 01:28N 31°27' E 031°46'0 0.0
2015-May-25 17:10N 31°27' E 031°46'0 0.0
2015-May-25 16:19N 31°27' E 031°46'0 0.0
2015-May-25 15:25N 31°27' E 031°46'3 0.1
2015-May-23 20:28N 31°30' E 031°46'7 7.0
2015-May-23 19:28N 31°37' E 031°45'0 0.2
2015-May-23 18:29N 31°37' E 031°45'0 0.0
2015-May-23 17:29N 31°37' E 031°45'0 0.0
2015-May-23 16:29N 31°37' E 031°45'0 0.0
2015-May-23 13:32N 31°37' E 031°45'0 0.0
2015-May-23 12:32N 31°37' E 031°45'0 0.0
2015-May-23 11:32N 31°37' E 031°45'0 0.0
2015-May-23 10:32N 31°37' E 031°45'0 0.0
2015-May-23 09:32N 31°37' E 031°45'0 0.0
2015-May-23 08:32N 31°37' E 031°45'0 0.0
2015-May-23 04:29N 31°37' E 031°45'0 0.0
2015-May-23 03:32N 31°37' E 031°45'0 0.0
2015-May-23 02:23N 31°37' E 031°45'0 0.0
2015-May-23 01:29N 31°37' E 031°45'0 0.0
2015-May-22 21:32N 31°37' E 031°45'0 0.0
2015-May-22 20:14N 31°37' E 031°45'0 0.0
2015-May-20 21:23N 31°37' E 031°45'0 0.0
2015-May-20 20:32N 31°37' E 031°45'0 0.0
2015-May-20 17:20N 31°37' E 031°45'0 0.0
2015-May-20 16:32N 31°37' E 031°45'0 0.0
2015-May-20 15:32N 31°37' E 031°45'0 0.0
2015-May-20 14:32N 31°37' E 031°45'0 0.0
2015-May-20 13:17N 31°37' E 031°45'0 0.0
2015-May-20 12:29N 31°37' E 031°45'0 0.0
2015-May-20 11:32N 31°37' E 031°45'0 0.0
2015-May-20 10:32N 31°37' E 031°45'0 0.0
2015-May-20 09:32N 31°37' E 031°45'0 0.0
2015-May-20 08:32N 31°37' E 031°45'0 0.0
2015-May-20 07:29N 31°37' E 031°45'0 0.0
2015-May-20 06:29N 31°37' E 031°45'0 0.0
2015-May-20 05:23N 31°37' E 031°45'0 0.1
2015-May-20 04:32N 31°37' E 031°45'7 6.9
2015-May-20 03:26N 31°44' E 031°42'138 9.2
2015-May-19 12:25N 32°23' E 029°06'  

Dump ship's entire track history